SR-120 : East of Main St Atmospheric Data: 03/22/2019 Summary  Detailed Graphs  Station List

  Temperature     Wind Precipitation Visibility
Timestamp Air Wet
Bulb
Dew-
point
24-hr
Max
24-hr
Min
Relative
Humidity
Atmospheric
Pressure
Avg
Speed
Avg
Dir
Spot
Speed
Spot
Dir
Max
Speed
Max
Dir
  Rate Situation Start End 1 hr 3 hr 6 hr 12 hr 24 hr   Situation
Date Time °F °F °F °F °F % in Hg mph ° mph ° mph ° Y/N in/hr text Date Time Date Time in in in in in mi text
03/22/2019 12:01 AM 51.62 46.40 41.00 68.54 45.32 67.0 x 2.46 W 1.57 W 4.47 W No 0.000 No Precipitation 03/20/2019 05:22 PM 03/20/2019 06:24 PM 0.000 0.000 0.000 0.000 0.000 1.24 Clear
03/22/2019 12:11 AM 51.44 46.40 41.18 68.54 45.32 68.0 x 4.25 W 3.80 W 6.04 NW No 0.000 No Precipitation 03/20/2019 05:22 PM 03/20/2019 06:24 PM 0.000 0.000 0.000 0.000 0.000 1.24 Clear
03/22/2019 12:21 AM 51.80 46.58 41.54 68.54 45.32 68.0 x 6.04 NW 3.36 W 10.07 NW No 0.000 No Precipitation 03/20/2019 05:22 PM 03/20/2019 06:24 PM 0.000 0.000 0.000 0.000 0.000 1.24 Clear
03/22/2019 12:41 AM 51.26 46.40 41.36 68.54 45.32 69.0 x 4.47 W 6.49 W 7.61 W No 0.000 No Precipitation 03/20/2019 05:22 PM 03/20/2019 06:24 PM 0.000 0.000 0.000 0.000 0.000 1.24 Clear
03/22/2019 01:21 AM 52.52 46.76 41.18 68.54 45.32 66.0 x 6.71 W 5.82 W 16.55 W No 0.000 No Precipitation 03/20/2019 05:22 PM 03/20/2019 06:24 PM 0.000 0.000 0.000 0.000 0.000 1.24 Clear
03/22/2019 02:02 AM 51.26 46.94 42.80 68.54 45.32 73.0 x 4.03 NW 5.59 W 11.63 W No 0.000 No Precipitation 03/20/2019 05:22 PM 03/20/2019 06:24 PM 0.000 0.000 0.000 0.000 0.000 1.24 Clear
03/22/2019 02:11 AM 51.44 47.12 42.80 68.54 45.32 73.0 x 6.26 W 8.72 W 11.41 W No 0.000 No Precipitation 03/20/2019 05:22 PM 03/20/2019 06:24 PM 0.000 0.000 0.000 0.000 0.000 1.24 Clear
03/22/2019 02:31 AM 51.26 46.76 42.44 68.54 45.32 72.0 x 4.03 NW 7.83 NW 10.74 W No 0.000 No Precipitation 03/20/2019 05:22 PM 03/20/2019 06:24 PM 0.000 0.000 0.000 0.000 0.000 1.24 Clear
03/22/2019 03:11 AM 48.38 44.96 41.36 68.54 45.32 77.0 x 4.03 NE 4.47 NE 6.26 NE No 0.000 No Precipitation 03/20/2019 05:22 PM 03/20/2019 06:24 PM 0.000 0.000 0.000 0.000 0.000 1.24 Clear
03/22/2019 03:21 AM 47.84 44.78 41.72 68.54 45.32 80.0 x 4.92 NE 4.03 NE 7.61 NE No 0.000 No Precipitation 03/20/2019 05:22 PM 03/20/2019 06:24 PM 0.000 0.000 0.000 0.000 0.000 1.24 Clear
03/22/2019 03:41 AM 46.58 44.24 41.90 68.54 45.32 84.0 x 2.24 N 2.91 N 6.49 NE No 0.000 No Precipitation 03/20/2019 05:22 PM 03/20/2019 06:24 PM 0.000 0.000 0.000 0.000 0.000 1.24 Clear
03/22/2019 04:01 AM 46.94 44.42 41.72 68.54 45.32 82.0 x 4.47 NE 3.58 NE 5.59 NE No 0.000 No Precipitation 03/20/2019 05:22 PM 03/20/2019 06:24 PM 0.000 0.000 0.000 0.000 0.000 1.24 Clear
03/22/2019 04:11 AM 46.58 44.24 41.54 68.54 45.32 83.0 x 2.24 NE 4.70 E 4.03 E No 0.000 No Precipitation 03/20/2019 05:22 PM 03/20/2019 06:24 PM 0.000 0.000 0.000 0.000 0.000 1.24 Clear
03/22/2019 04:21 AM 46.94 44.60 42.08 68.54 45.32 83.0 x 3.36 E 2.91 E 6.49 E No 0.000 No Precipitation 03/20/2019 05:22 PM 03/20/2019 06:24 PM 0.000 0.000 0.000 0.000 0.000 1.24 Clear
03/22/2019 05:21 AM 45.86 43.70 41.36 68.54 45.32 85.0 x 1.34 SE 2.24 S 5.14 E No 0.000 No Precipitation 03/20/2019 05:22 PM 03/20/2019 06:24 PM 0.000 0.000 0.000 0.000 0.000 1.24 Clear
03/22/2019 05:31 AM 44.96 42.98 41.00 68.54 45.14 86.0 x 2.91 SW 2.46 SW 5.59 SW No 0.000 No Precipitation 03/20/2019 05:22 PM 03/20/2019 06:24 PM 0.000 0.000 0.000 0.000 0.000 1.24 Clear
03/22/2019 05:51 AM 44.60 42.98 41.18 68.54 44.42 88.0 x 2.24 E 3.58 E 4.92 E No 0.000 No Precipitation 03/20/2019 05:22 PM 03/20/2019 06:24 PM 0.000 0.000 0.000 0.000 0.000 1.24 Clear
03/22/2019 06:01 AM 45.14 43.52 41.54 68.54 44.42 87.0 x 2.24 SE 1.57 SE 5.59 E No 0.000 No Precipitation 03/20/2019 05:22 PM 03/20/2019 06:24 PM 0.000 0.000 0.000 0.000 0.000 1.24 Clear
03/22/2019 06:11 AM 44.78 43.16 41.36 68.54 44.42 88.0 x 1.34 SE 4.25 E 6.49 E No 0.000 No Precipitation 03/20/2019 05:22 PM 03/20/2019 06:24 PM 0.000 0.000 0.000 0.000 0.000 1.24 Clear
03/22/2019 06:31 AM 44.96 43.34 41.36 68.54 44.42 88.0 x 2.24 SE 1.79 SE 5.82 E No 0.000 No Precipitation 03/20/2019 05:22 PM 03/20/2019 06:24 PM 0.000 0.000 0.000 0.000 0.000 1.24 Clear
03/22/2019 06:42 AM 44.96 43.34 41.54 68.54 44.42 88.0 x 2.01 SE 2.91 E 5.59 SE No 0.000 No Precipitation 03/20/2019 05:22 PM 03/20/2019 06:24 PM 0.000 0.000 0.000 0.000 0.000 1.24 Clear
03/22/2019 06:51 AM 44.78 43.16 41.36 68.54 44.42 88.0 x 2.68 SE 1.79 E 6.71 SE No 0.000 No Precipitation 03/20/2019 05:22 PM 03/20/2019 06:24 PM 0.000 0.000 0.000 0.000 0.000 1.24 Clear
03/22/2019 07:01 AM 44.60 43.16 41.36 68.54 44.42 89.0 x 1.57 S 0.00 N 5.14 E No 0.000 No Precipitation 03/20/2019 05:22 PM 03/20/2019 06:24 PM 0.000 0.000 0.000 0.000 0.000 1.24 Clear
03/22/2019 07:11 AM 44.78 43.16 41.54 68.54 44.42 88.0 x 1.57 S 2.91 E 3.36 E No 0.000 No Precipitation 03/20/2019 05:22 PM 03/20/2019 06:24 PM 0.000 0.000 0.000 0.000 0.000 1.24 Clear
03/22/2019 07:21 AM 45.14 43.52 41.72 68.54 44.42 88.0 x 2.46 SE 1.34 SE 5.82 E No 0.000 No Precipitation 03/20/2019 05:22 PM 03/20/2019 06:24 PM 0.000 0.000 0.000 0.000 0.000 1.24 Clear
03/22/2019 07:41 AM 46.22 44.24 42.08 68.54 44.42 85.0 x 2.01 SE 1.57 S 6.26 E No 0.000 No Precipitation 03/20/2019 05:22 PM 03/20/2019 06:24 PM 0.000 0.000 0.000 0.000 0.000 1.24 Clear
03/22/2019 08:02 AM 46.04 44.06 41.90 68.54 44.42 86.0 x 1.79 S 1.79 S 7.83 E No 0.000 No Precipitation 03/20/2019 05:22 PM 03/20/2019 06:24 PM 0.000 0.000 0.000 0.000 0.000 1.24 Clear
03/22/2019 08:31 AM 45.86 44.06 42.08 68.54 44.42 87.0 x 1.79 S 2.01 SW 5.59 SW No 0.000 No Precipitation 03/20/2019 05:22 PM 03/20/2019 06:24 PM 0.000 0.000 0.000 0.000 0.000 1.24 Clear
03/22/2019 08:41 AM 46.40 44.42 42.44 68.54 44.42 86.0 x 2.46 SE 3.36 SE 4.92 SE No 0.000 No Precipitation 03/20/2019 05:22 PM 03/20/2019 06:24 PM 0.000 0.000 0.000 0.000 0.000 1.24 Clear
03/22/2019 08:51 AM 47.84 45.50 42.98 68.54 44.42 83.0 x 4.70 E 3.36 E 8.28 E No 0.000 No Precipitation 03/20/2019 05:22 PM 03/20/2019 06:24 PM 0.000 0.000 0.000 0.000 0.000 1.24 Clear
03/22/2019 09:21 AM 49.28 46.40 43.34 68.54 44.42 80.0 x 4.03 SE 2.01 SE 8.28 E No 0.000 No Precipitation 03/20/2019 05:22 PM 03/20/2019 06:24 PM 0.000 0.000 0.000 0.000 0.000 1.24 Clear
03/22/2019 09:32 AM 50.00 46.76 43.70 68.54 44.42 79.0 x 3.13 SE 2.91 S 6.49 E No 0.000 No Precipitation 03/20/2019 05:22 PM 03/20/2019 06:24 PM 0.000 0.000 0.000 0.000 0.000 1.24 Clear
03/22/2019 09:41 AM 50.36 47.30 44.06 68.54 44.42 79.0 x 3.58 E 1.34 SE 6.71 SE No 0.000 No Precipitation 03/20/2019 05:22 PM 03/20/2019 06:24 PM 0.000 0.000 0.000 0.000 0.000 1.24 Clear
03/22/2019 10:11 AM 51.62 48.20 44.96 68.54 44.42 78.0 x 2.46 S 2.24 S 7.16 SE No 0.000 No Precipitation 03/20/2019 05:22 PM 03/20/2019 06:24 PM 0.000 0.000 0.000 0.000 0.000 1.24 Clear
03/22/2019 10:31 AM 52.52 48.74 45.14 68.54 44.42 76.0 x 3.36 SE 6.04 E 6.71 E No 0.000 No Precipitation 03/20/2019 05:22 PM 03/20/2019 06:24 PM 0.000 0.000 0.000 0.000 0.000 1.24 Clear
03/22/2019 10:51 AM 53.78 49.10 44.96 68.54 44.42 72.0 x 3.36 SE 7.61 SE 8.05 E No 0.000 No Precipitation 03/20/2019 05:22 PM 03/20/2019 06:24 PM 0.000 0.000 0.000 0.000 0.000 1.24 Clear
03/22/2019 11:01 AM 53.78 49.10 45.14 68.54 44.42 71.0 x 4.03 E 2.24 SE 8.50 E No 0.000 No Precipitation 03/20/2019 05:22 PM 03/20/2019 06:24 PM 0.000 0.000 0.000 0.000 0.000 1.24 Clear
03/22/2019 11:11 AM 54.14 49.46 44.96 68.54 44.42 72.0 x 4.47 E 2.24 SE 8.28 E No 0.000 No Precipitation 03/20/2019 05:22 PM 03/20/2019 06:24 PM 0.000 0.000 0.000 0.000 0.000 1.24 Clear
03/22/2019 11:21 AM 54.86 49.64 45.50 68.54 44.42 70.0 x 4.03 E 4.03 E 7.38 E No 0.000 No Precipitation 03/20/2019 05:22 PM 03/20/2019 06:24 PM 0.000 0.000 0.000 0.000 0.000 1.24 Clear
03/22/2019 12:01 PM 57.56 50.72 45.32 68.54 44.42 63.0 x 3.58 E 5.37 E 8.50 E No 0.000 No Precipitation 03/20/2019 05:22 PM 03/20/2019 06:24 PM 0.000 0.000 0.000 0.000 0.000 1.24 Clear
03/22/2019 12:11 PM 57.74 50.72 44.42 68.54 44.42 61.0 x 1.57 NE 3.58 S 8.72 E No 0.000 No Precipitation 03/20/2019 05:22 PM 03/20/2019 06:24 PM 0.000 0.000 0.000 0.000 0.000 1.24 Clear
03/22/2019 12:41 PM 59.72 51.98 45.14 68.54 44.42 59.0 x 4.47 SE 4.70 SE 10.29 SE No 0.000 No Precipitation 03/20/2019 05:22 PM 03/20/2019 06:24 PM 0.000 0.000 0.000 0.000 0.000 1.24 Clear
03/22/2019 12:51 PM 60.44 51.80 44.96 68.54 44.42 56.0 x 4.03 SE 6.26 SE 7.16 SE No 0.000 No Precipitation 03/20/2019 05:22 PM 03/20/2019 06:24 PM 0.000 0.000 0.000 0.000 0.000 1.24 Clear
03/22/2019 01:11 PM 60.62 51.80 44.24 68.54 44.42 55.0 x 3.36 S 0.00 N 7.16 S No 0.000 No Precipitation 03/20/2019 05:22 PM 03/20/2019 06:24 PM 0.000 0.000 0.000 0.000 0.000 1.24 Clear
03/22/2019 01:31 PM 61.52 52.34 44.42 68.54 44.42 54.0 x 5.59 S 4.70 S 9.62 S No 0.000 No Precipitation 03/20/2019 05:22 PM 03/20/2019 06:24 PM 0.000 0.000 0.000 0.000 0.000 1.24 Clear
03/22/2019 01:41 PM 62.06 52.70 45.14 68.54 44.42 53.0 x 3.36 S 2.68 SW 8.72 S No 0.000 No Precipitation 03/20/2019 05:22 PM 03/20/2019 06:24 PM 0.000 0.000 0.000 0.000 0.000 1.24 Clear
03/22/2019 01:51 PM 62.24 52.16 44.24 68.54 44.42 52.0 x 2.68 S 4.03 SW 8.05 S No 0.000 No Precipitation 03/20/2019 05:22 PM 03/20/2019 06:24 PM 0.000 0.000 0.000 0.000 0.000 1.24 Clear
03/22/2019 02:11 PM 61.70 52.70 44.24 68.54 44.42 54.0 x 3.58 SE 3.13 S 7.83 S No 0.000 No Precipitation 03/20/2019 05:22 PM 03/20/2019 06:24 PM 0.000 0.000 0.000 0.000 0.000 1.24 Clear
03/22/2019 02:21 PM 62.60 53.24 45.50 68.54 44.42 53.0 x 6.26 E 4.92 E 8.95 SE No 0.000 No Precipitation 03/20/2019 05:22 PM 03/20/2019 06:24 PM 0.000 0.000 0.000 0.000 0.000 1.24 Clear
03/22/2019 02:31 PM 61.70 52.34 44.78 68.54 44.42 54.0 x 4.70 E 4.25 E 10.74 E No 0.000 No Precipitation 03/20/2019 05:22 PM 03/20/2019 06:24 PM 0.000 0.000 0.000 0.000 0.000 1.24 Clear
03/22/2019 03:01 PM 62.06 52.34 44.24 68.54 44.42 52.0 x 4.03 E 3.80 NE 10.29 SE No 0.000 No Precipitation 03/20/2019 05:22 PM 03/20/2019 06:24 PM 0.000 0.000 0.000 0.000 0.000 1.24 Clear
03/22/2019 03:11 PM 62.60 52.88 44.42 68.54 44.42 52.0 x 4.25 S 4.92 SE 8.50 S No 0.000 No Precipitation 03/20/2019 05:22 PM 03/20/2019 06:24 PM 0.000 0.000 0.000 0.000 0.000 1.24 Clear
03/22/2019 03:21 PM 62.78 52.88 44.78 68.54 44.42 51.0 x 4.25 SE 4.70 E 9.40 SE No 0.000 No Precipitation 03/20/2019 05:22 PM 03/20/2019 06:24 PM 0.000 0.000 0.000 0.000 0.000 1.24 Clear
03/22/2019 03:31 PM 63.50 53.42 44.96 68.54 44.42 51.0 x 4.47 S 5.14 S 9.62 S No 0.000 No Precipitation 03/20/2019 05:22 PM 03/20/2019 06:24 PM 0.000 0.000 0.000 0.000 0.000 1.24 Clear
03/22/2019 03:41 PM 63.86 53.78 45.14 68.54 44.42 51.0 x 6.49 SE 8.95 SE 10.07 SE No 0.000 No Precipitation 03/20/2019 05:22 PM 03/20/2019 06:24 PM 0.000 0.000 0.000 0.000 0.000 1.24 Clear
03/22/2019 04:11 PM 64.22 53.42 43.88 68.54 44.42 48.0 x 6.71 SE 4.25 SE 11.63 SE No 0.000 No Precipitation 03/20/2019 05:22 PM 03/20/2019 06:24 PM 0.000 0.000 0.000 0.000 0.000 1.24 Clear
03/22/2019 04:51 PM 64.58 52.88 43.34 68.18 44.42 46.0 x 7.38 SE 7.16 E 12.97 SE No 0.000 No Precipitation 03/20/2019 05:22 PM 03/20/2019 06:24 PM 0.000 0.000 0.000 0.000 0.000 1.24 Clear
03/22/2019 05:21 PM 64.22 53.60 44.96 67.82 44.42 49.0 x 5.37 SE 5.59 SE 8.95 SE No 0.000 No Precipitation 03/20/2019 05:22 PM 03/20/2019 06:24 PM 0.000 0.000 0.000 0.000 0.000 1.24 Clear
03/22/2019 05:31 PM 63.86 53.60 45.14 67.82 44.42 51.0 x 3.58 S 5.37 SE 8.28 SE No 0.000 No Precipitation 03/20/2019 05:22 PM 03/20/2019 06:24 PM 0.000 0.000 0.000 0.000 0.000 1.24 Clear
03/22/2019 05:41 PM 62.96 53.96 46.40 67.82 44.42 55.0 x 4.70 SE 5.59 SE 8.72 SE Yes 0.001 Rain Slight 03/22/2019 04:36 PM   0.000 0.000 0.000 0.000 0.000 1.24 Clear
03/22/2019 05:51 PM 62.60 54.32 48.02 67.10 44.42 59.0 x 3.36 SE 4.92 SE 8.28 E Yes 0.001 Rain Slight 03/22/2019 04:36 PM   0.000 0.004 0.000 0.004 0.000 1.24 Clear
03/22/2019 06:01 PM 62.42 53.78 47.30 66.92 44.42 58.0 x 2.68 S 2.68 S 8.28 SE Yes 0.001 Rain Slight 03/22/2019 04:36 PM   0.004 0.004 0.004 0.004 0.004 1.24 Clear
03/22/2019 06:21 PM 61.16 54.32 49.64 65.84 44.42 65.0 x 2.91 S 2.91 S 5.37 S Yes 0.001 Rain Slight 03/22/2019 04:36 PM   0.008 0.008 0.008 0.008 0.008 1.24 Clear
03/22/2019 06:31 PM 60.26 54.50 50.00 65.30 44.42 69.0 x 2.01 S 1.79 S 4.92 SW Yes 0.001 Rain Slight 03/22/2019 04:36 PM   0.012 0.012 0.012 0.012 0.012 1.24 Clear
03/22/2019 07:12 PM 58.82 54.50 51.08 64.94 44.42 76.0 x 3.36 SE 2.46 E 6.71 E Yes 0.000 Rain Slight 03/22/2019 04:36 PM   0.008 0.016 0.016 0.016 0.016 1.24 Clear
03/22/2019 07:31 PM 58.10 54.32 51.08 64.94 44.42 78.0 x 4.25 E 2.46 E 7.38 E Yes 0.000 No Precipitation 03/22/2019 04:36 PM   0.004 0.016 0.016 0.016 0.016 1.24 Clear
03/22/2019 08:21 PM 57.02 53.96 51.44 64.94 44.42 82.0 x 1.79 NW 1.79 NW 2.68 N Yes 0.000 Rain Slight 03/22/2019 07:18 PM   0.000 0.016 0.016 0.016 0.016 1.24 Clear
03/22/2019 08:31 PM 56.66 54.14 52.16 64.94 44.42 85.0 x 1.57 N 1.57 NW 2.68 NW Yes 0.000 Rain Slight 03/22/2019 07:18 PM   0.004 0.020 0.020 0.020 0.020 1.24 Clear
03/22/2019 08:51 PM 56.48 54.14 51.98 64.94 44.42 86.0 x 2.24 NE 1.79 E 5.37 E Yes 0.002 Rain Slight 03/22/2019 07:18 PM   0.004 0.020 0.020 0.020 0.020 1.24 Clear
03/22/2019 09:11 PM 56.66 54.68 53.24 64.94 44.42 89.0 x 1.57 SE 0.00 E 5.59 E Yes 0.001 Rain Slight 03/22/2019 07:18 PM   0.008 0.020 0.024 0.024 0.024 1.24 Clear
03/22/2019 09:21 PM 56.48 54.50 52.88 64.94 44.42 88.0 x 2.68 SE 3.80 E 6.26 E Yes 0.001 Rain Slight 03/22/2019 07:18 PM   0.008 0.020 0.024 0.024 0.024 1.24 Clear
03/22/2019 09:31 PM 56.30 54.68 53.42 64.94 44.42 90.0 x 2.91 E 3.13 E 5.59 E Yes 0.000 Rain Slight 03/22/2019 07:18 PM   0.008 0.016 0.028 0.028 0.028 1.24 Clear
03/22/2019 09:41 PM 56.12 54.68 53.24 64.94 44.42 91.0 x 2.24 E 2.24 NE 5.14 E Yes 0.000 Rain Slight 03/22/2019 07:18 PM   0.008 0.016 0.028 0.028 0.028 1.24 Clear
03/22/2019 09:51 PM 55.94 54.50 53.60 64.94 44.42 92.0 x 0.00 N 1.34 N 3.36 E Yes 0.000 Rain Slight 03/22/2019 07:18 PM   0.008 0.016 0.028 0.028 0.028 1.24 Clear
03/22/2019 10:11 PM 55.76 54.68 53.78 64.94 44.42 93.0 x 1.79 N 2.24 NW 2.91 N Yes 0.000 Rain Slight 03/22/2019 07:18 PM   0.008 0.020 0.031 0.031 0.031 1.24 Clear
03/22/2019 10:21 PM 55.40 54.14 53.24 64.94 44.42 93.0 x 3.13 NW 3.13 N 4.25 NW Yes 0.001 Rain Slight 03/22/2019 07:18 PM   0.008 0.020 0.031 0.031 0.031 1.24 Clear
03/22/2019 10:31 PM 55.22 54.14 53.24 64.94 44.42 93.0 x 4.03 NW 4.25 NW 5.82 NW Yes 0.001 Rain Slight 03/22/2019 07:18 PM   0.008 0.020 0.035 0.035 0.035 1.24 Clear
03/22/2019 10:42 PM 55.04 54.14 53.42 64.94 44.42 94.0 x 4.25 NW 2.24 NW 6.04 NW Yes 0.001 Rain Slight 03/22/2019 07:18 PM   0.008 0.020 0.035 0.035 0.035 1.24 Clear
03/22/2019 10:52 PM 54.86 53.96 53.24 64.94 44.42 95.0 x 4.70 N 4.92 N 6.71 N Yes 0.001 Rain Slight 03/22/2019 07:18 PM   0.012 0.024 0.039 0.039 0.039 1.24 Clear
03/22/2019 11:01 PM 54.68 53.96 53.24 64.94 44.42 95.0 x 3.36 N 5.59 NW 6.93 N Yes 0.000 Rain Slight 03/22/2019 07:18 PM   0.008 0.024 0.039 0.039 0.039 1.24 Clear
03/22/2019 11:41 PM 53.42 52.52 51.80 64.94 44.42 94.0 x 2.91 N 4.70 NE 5.14 N Yes 0.002 Rain Slight 03/22/2019 07:18 PM   0.008 0.028 0.043 0.043 0.043 1.24 Clear
03/22/2019 11:51 PM 53.42 52.52 51.80 64.94 44.42 95.0 x 2.68 N 3.80 NE 6.04 NE Yes 0.002 Rain Slight 03/22/2019 07:18 PM   0.008 0.028 0.043 0.047 0.047 1.24 Clear